Time;durP1;ratioP1;P1;durP2;ratioP2;P2;SDS_P1;SDS_P2;PMS_P1;PMS_P2;Temp;Humidity;BMP_temperature;BMP_pressure;BME280_temperature;BME280_humidity;BME280_pressure;Samples;Min_cycle;Max_cycle;Signal;HPM_P1;HPM_P2
2023/08/17 00:02:23;;;;;;;7.43;2.67;;;;;;;20.08;94.16;101349.06;5015540;28;20140;-73
2023/08/17 00:04:51;;;;;;;6.85;2.65;;;;;;;20.06;93.92;101361.72;5000590;28;20519;-71
2023/08/17 00:07:19;;;;;;;5.20;2.38;;;;;;;20.05;94.19;101352.03;4995629;28;20061;-70
2023/08/17 00:09:47;;;;;;;7.57;2.80;;;;;;;20.02;94.09;101343.41;5009627;28;20049;-70
2023/08/17 00:12:14;;;;;;;4.95;2.50;;;;;;;20.00;94.16;101338.22;5026853;28;20119;-72
2023/08/17 00:14:42;;;;;;;5.85;2.25;;;;;;;19.98;94.40;101335.66;4991486;28;20087;-71
2023/08/17 00:17:09;;;;;;;6.00;2.90;;;;;;;19.96;94.47;101326.94;5013864;28;20148;-68
2023/08/17 00:19:37;;;;;;;4.38;2.55;;;;;;;19.95;94.94;101329.75;4980962;28;20069;-70
2023/08/17 00:22:04;;;;;;;8.18;3.03;;;;;;;19.93;95.00;101318.34;4999082;28;20463;-69
2023/08/17 00:24:32;;;;;;;5.72;2.63;;;;;;;19.93;95.33;101313.00;4999586;28;20127;-68
2023/08/17 00:26:59;;;;;;;6.15;2.60;;;;;;;19.89;95.18;101306.22;5014617;28;20057;-70
2023/08/17 00:29:26;;;;;;;4.95;2.50;;;;;;;19.85;95.11;101300.28;5030093;28;20056;-70
2023/08/17 00:31:54;;;;;;;7.43;2.83;;;;;;;19.82;95.72;101297.91;5028101;28;20120;-69
2023/08/17 00:34:21;;;;;;;6.75;2.92;;;;;;;19.80;95.49;101288.31;5027681;28;21467;-69
2023/08/17 00:36:48;;;;;;;6.22;2.80;;;;;;;19.79;95.54;101289.31;5022747;28;20092;-71
2023/08/17 00:39:16;;;;;;;6.22;2.70;;;;;;;19.73;96.15;101291.53;5017261;28;20048;-68
2023/08/17 00:41:43;;;;;;;4.80;2.75;;;;;;;19.71;96.25;101287.28;5029355;28;20057;-68
2023/08/17 00:44:11;;;;;;;4.38;2.05;;;;;;;19.70;96.03;101296.28;4994113;28;20053;-69
2023/08/17 00:46:38;;;;;;;6.15;2.97;;;;;;;19.69;95.93;101295.44;4995399;28;20147;-69
2023/08/17 00:49:07;;;;;;;9.77;3.00;;;;;;;19.66;96.16;101294.88;5015227;28;20056;-69
2023/08/17 00:51:35;;;;;;;6.00;2.83;;;;;;;19.63;96.63;101301.34;5014796;28;20192;-70
2023/08/17 00:54:02;;;;;;;7.20;2.55;;;;;;;19.61;96.58;101297.94;5029965;28;20095;-68
2023/08/17 00:56:30;;;;;;;6.55;2.88;;;;;;;19.60;96.55;101298.91;5038135;28;20099;-70
2023/08/17 00:58:59;;;;;;;4.95;2.60;;;;;;;19.60;96.70;101301.59;5006813;28;20061;-69
2023/08/17 01:01:27;;;;;;;5.75;2.60;;;;;;;19.56;96.74;101302.81;5011594;28;20049;-69
2023/08/17 01:03:56;;;;;;;8.07;2.28;;;;;;;19.56;96.98;101310.81;5007150;28;20054;-69
2023/08/17 01:06:23;;;;;;;6.80;2.40;;;;;;;19.54;97.21;101302.06;5012407;28;20429;-71
2023/08/17 01:08:51;;;;;;;9.05;2.90;;;;;;;19.51;97.20;101301.50;5025980;28;20111;-69
2023/08/17 01:11:24;;;;;;;4.55;2.78;;;;;;;19.47;97.40;101303.59;5011746;28;20049;-68
2023/08/17 01:13:52;;;;;;;7.68;2.42;;;;;;;19.44;97.23;101295.84;5010580;28;20499;-69
2023/08/17 01:16:40;;;;;;;6.72;3.00;;;;;;;19.43;97.68;101304.81;5018496;28;20107;-70
2023/08/17 01:19:09;;;;;;;6.80;2.25;;;;;;;19.40;97.84;101297.06;5013900;28;20041;-69
2023/08/17 01:21:50;;;;;;;6.10;2.50;;;;;;;19.37;98.05;101303.53;5006984;28;20092;-69
2023/08/17 01:24:17;;;;;;;4.68;2.65;;;;;;;19.36;98.24;101292.97;5032663;28;20145;-71
2023/08/17 01:26:44;;;;;;;4.25;2.70;;;;;;;19.34;98.41;101300.28;5021887;28;20139;-69
2023/08/17 01:29:12;;;;;;;9.02;3.55;;;;;;;19.33;98.15;101285.25;5030860;28;20065;-69
2023/08/17 01:32:04;;;;;;;11.90;3.20;;;;;;;19.34;98.32;101292.25;5000424;28;20145;-70
2023/08/17 01:34:37;;;;;;;6.75;2.58;;;;;;;19.30;98.24;101289.00;5004115;28;20057;-71
2023/08/17 01:37:08;;;;;;;8.63;3.38;;;;;;;19.28;98.71;101298.13;5011824;28;20092;-71
2023/08/17 01:39:39;;;;;;;4.35;2.60;;;;;;;19.28;98.34;101295.47;5033832;28;20041;-70
2023/08/17 01:42:08;;;;;;;6.07;2.70;;;;;;;19.26;98.41;101300.06;5018470;28;20504;-71
2023/08/17 01:44:36;;;;;;;9.43;2.88;;;;;;;19.23;98.59;101295.84;5002221;28;20125;-72
2023/08/17 01:49:59;;;;;;;8.05;3.58;;;;;;;19.17;99.50;101294.53;5016267;28;20048;-69
2023/08/17 01:52:28;;;;;;;6.93;3.10;;;;;;;19.17;99.30;101296.34;5034318;28;20045;-68
2023/08/17 01:54:56;;;;;;;5.60;2.58;;;;;;;19.15;99.24;101292.97;5017829;28;20218;-67
2023/08/17 01:57:23;;;;;;;4.45;2.70;;;;;;;19.13;99.30;101293.09;5006199;28;20087;-68
2023/08/17 01:59:52;;;;;;;11.68;3.45;;;;;;;19.10;99.35;101292.53;5020869;28;20060;-68
2023/08/17 02:02:21;;;;;;;7.32;3.03;;;;;;;19.09;99.40;101306.81;5016985;28;20121;-69
2023/08/17 02:04:49;;;;;;;6.32;3.25;;;;;;;19.06;99.40;101302.63;5007321;28;20048;-68
2023/08/17 02:07:16;;;;;;;11.30;2.78;;;;;;;19.06;99.49;101297.28;5016159;28;20046;-71
2023/08/17 02:09:43;;;;;;;6.00;2.63;;;;;;;19.03;99.78;101302.00;5020004;28;20052;-72
2023/08/17 02:12:11;;;;;;;4.68;2.92;;;;;;;19.02;99.86;101301.16;5001513;28;20562;-69
2023/08/17 02:18:08;;;;;;;9.18;2.75;;;;;;;19.02;99.84;101303.00;5026773;28;20061;-74
2023/08/17 02:20:38;;;;;;;4.22;2.67;;;;;;;19.01;99.98;101293.31;5029793;28;20149;-67
2023/08/17 02:23:05;;;;;;;5.70;3.03;;;;;;;19.01;99.88;101298.66;5014355;28;20058;-67
2023/08/17 02:25:36;;;;;;;5.75;2.67;;;;;;;18.97;100.00;101301.56;5002579;28;20087;-69
2023/08/17 02:28:04;;;;;;;6.72;2.95;;;;;;;18.95;99.98;101305.31;5033841;28;20062;-66
2023/08/17 02:30:31;;;;;;;9.65;3.38;;;;;;;18.94;100.00;101300.97;5027846;28;20160;-67
2023/08/17 02:32:58;;;;;;;5.43;2.40;;;;;;;18.92;99.99;101305.59;5020423;28;20065;-69
2023/08/17 02:35:51;;;;;;;7.90;3.20;;;;;;;18.89;100.00;101300.50;5013336;28;20091;-69
2023/08/17 02:38:19;;;;;;;7.97;2.72;;;;;;;18.87;100.00;101303.31;4997753;28;20150;-69
2023/08/17 02:40:46;;;;;;;7.38;3.05;;;;;;;18.87;100.00;101295.31;5022779;28;20133;-69
2023/08/17 02:43:13;;;;;;;8.60;2.92;;;;;;;18.85;100.00;101289.22;5030848;28;20152;-68
2023/08/17 02:45:40;;;;;;;4.80;2.35;;;;;;;18.81;100.00;101282.44;5023982;28;20061;-70
2023/08/17 02:48:08;;;;;;;8.18;2.80;;;;;;;18.80;100.00;101275.44;5014762;28;20037;-71
2023/08/17 02:50:35;;;;;;;9.13;3.70;;;;;;;18.80;100.00;101271.94;5017740;28;20479;-68
2023/08/17 02:53:03;;;;;;;6.45;2.47;;;;;;;18.76;100.00;101271.31;4997243;28;20621;-69
2023/08/17 02:55:30;;;;;;;6.82;2.92;;;;;;;18.75;100.00;101271.47;5032340;28;20520;-67
2023/08/17 02:57:58;;;;;;;6.63;2.97;;;;;;;18.75;100.00;101264.31;5039251;28;20460;-67
2023/08/17 03:00:25;;;;;;;5.00;2.58;;;;;;;18.74;100.00;101267.09;5014390;28;20053;-69
2023/08/17 03:02:53;;;;;;;5.60;2.10;;;;;;;18.72;100.00;101270.72;5017995;28;20456;-67
2023/08/17 03:05:21;;;;;;;6.00;2.63;;;;;;;18.71;100.00;101260.19;5015538;28;20653;-70
2023/08/17 03:07:48;;;;;;;8.18;2.92;;;;;;;18.74;100.00;101272.44;5033435;28;20050;-69
2023/08/17 03:10:16;;;;;;;8.65;2.83;;;;;;;18.70;100.00;101270.03;5007372;28;20088;-72
2023/08/17 03:12:44;;;;;;;4.50;2.80;;;;;;;18.70;100.00;101264.69;5031183;28;20338;-69
2023/08/17 03:15:11;;;;;;;6.10;2.80;;;;;;;18.71;99.91;101271.72;5012627;28;20061;-69
2023/08/17 03:17:38;;;;;;;7.22;2.97;;;;;;;18.75;99.29;101274.13;5018642;28;20180;-67
2023/08/17 03:20:06;;;;;;;6.57;2.97;;;;;;;18.75;99.00;101263.47;5028755;28;20072;-67
2023/08/17 03:22:34;;;;;;;10.60;3.13;;;;;;;18.74;98.67;101265.28;5025909;28;20122;-67
2023/08/17 03:25:02;;;;;;;8.63;2.75;;;;;;;18.75;98.64;101264.31;5028822;28;20516;-68
2023/08/17 03:27:30;;;;;;;8.98;3.22;;;;;;;18.74;98.20;101261.78;5033050;28;20053;-69
2023/08/17 03:29:57;;;;;;;6.05;2.42;;;;;;;18.72;98.00;101262.72;4980566;28;20049;-68
2023/08/17 03:32:28;;;;;;;5.07;2.25;;;;;;;18.73;97.76;101260.91;5031123;28;20224;-68
2023/08/17 03:34:55;;;;;;;8.60;2.63;;;;;;;18.72;97.54;101261.88;5000677;28;20575;-68
2023/08/17 03:37:22;;;;;;;8.57;2.58;;;;;;;18.73;97.32;101268.91;5024029;28;20142;-68
2023/08/17 03:39:50;;;;;;;4.20;2.45;;;;;;;18.71;97.00;101261.03;5011040;28;20063;-67
2023/08/17 03:42:17;;;;;;;6.97;2.75;;;;;;;18.70;96.49;101266.50;5030347;28;20194;-67
2023/08/17 03:44:46;;;;;;;5.80;2.22;;;;;;;18.71;96.58;101265.53;5029957;28;20245;-69
2023/08/17 03:47:14;;;;;;;3.70;2.22;;;;;;;18.71;96.20;101266.38;5028947;28;20092;-69
2023/08/17 03:49:43;;;;;;;6.07;2.70;;;;;;;18.70;96.11;101259.34;5037718;28;20649;-67
2023/08/17 03:52:10;;;;;;;5.88;2.30;;;;;;;18.72;95.88;101267.22;5010924;28;20072;-67
2023/08/17 03:54:39;;;;;;;4.50;1.95;;;;;;;18.73;95.63;101274.25;5029780;28;20071;-70
2023/08/17 03:57:06;;;;;;;5.88;2.10;;;;;;;18.75;95.20;101271.47;5029737;28;20160;-67
2023/08/17 03:59:33;;;;;;;9.27;2.88;;;;;;;18.76;94.91;101262.47;5030454;28;20508;-67
2023/08/17 04:02:01;;;;;;;7.38;2.05;;;;;;;18.75;94.72;101268.78;5029565;28;20045;-66
2023/08/17 04:04:28;;;;;;;5.93;2.33;;;;;;;18.77;94.72;101259.69;5028219;28;20049;-70
2023/08/17 04:06:55;;;;;;;7.35;2.50;;;;;;;18.75;94.30;101250.97;5030181;28;20132;-68
2023/08/17 04:09:23;;;;;;;4.05;2.40;;;;;;;18.77;94.01;101261.50;5014132;28;20356;-69
2023/08/17 04:11:50;;;;;;;8.02;2.63;;;;;;;18.78;93.93;101265.84;5031254;28;20140;-67
2023/08/17 04:14:17;;;;;;;4.63;2.03;;;;;;;18.78;93.67;101253.38;5035503;28;20107;-67
2023/08/17 04:16:46;;;;;;;5.68;2.67;;;;;;;18.82;92.95;101240.63;5009629;28;20075;-69
2023/08/17 04:19:14;;;;;;;7.55;2.45;;;;;;;18.82;92.67;101251.28;5032979;28;20683;-69
2023/08/17 04:21:41;;;;;;;5.72;2.15;;;;;;;18.83;92.40;101248.50;5018430;28;20135;-69
2023/08/17 04:24:08;;;;;;;6.05;2.60;;;;;;;18.87;92.11;101243.78;5015961;28;20294;-69
2023/08/17 04:26:36;;;;;;;4.78;1.95;;;;;;;18.89;91.82;101247.13;5011012;28;20081;-67
2023/08/17 04:29:03;;;;;;;5.38;2.20;;;;;;;18.90;91.19;101247.00;5013221;28;20148;-69
2023/08/17 04:31:30;;;;;;;5.43;2.10;;;;;;;18.91;90.61;101246.06;5013596;28;20516;-70
2023/08/17 04:33:58;;;;;;;6.57;2.10;;;;;;;18.95;90.32;101252.78;5013195;28;20076;-67
2023/08/17 04:36:25;;;;;;;4.20;2.10;;;;;;;19.03;89.96;101249.50;5032056;28;20159;-68
2023/08/17 04:38:53;;;;;;;7.03;2.30;;;;;;;19.06;89.49;101241.22;5033499;28;20157;-70
2023/08/17 04:41:20;;;;;;;5.03;2.42;;;;;;;19.11;89.03;101252.34;5016955;28;20146;-67
2023/08/17 04:43:49;;;;;;;5.32;2.38;;;;;;;19.17;88.63;101249.16;5017744;28;20110;-68
2023/08/17 04:46:16;;;;;;;9.35;2.47;;;;;;;19.21;88.10;101247.91;5016205;28;20155;-68
2023/08/17 04:48:45;;;;;;;5.22;2.08;;;;;;;19.25;87.64;101245.84;5012688;28;20127;-68
2023/08/17 04:51:14;;;;;;;7.82;2.67;;;;;;;19.29;87.10;101255.28;5035947;28;20076;-68
2023/08/17 04:53:43;;;;;;;5.68;2.28;;;;;;;19.30;86.60;101254.28;5013114;28;20085;-69
2023/08/17 04:56:10;;;;;;;16.05;2.58;;;;;;;19.33;86.16;101248.72;5009919;28;20145;-72
2023/08/17 04:58:37;;;;;;;7.13;2.05;;;;;;;19.39;85.96;101250.00;5010957;28;20049;-67
2023/08/17 05:01:05;;;;;;;6.15;2.30;;;;;;;19.42;85.96;101252.41;5005500;28;20218;-67
2023/08/17 05:03:32;;;;;;;5.53;2.55;;;;;;;19.45;85.66;101254.78;4989554;28;20057;-68
2023/08/17 05:06:01;;;;;;;2.72;2.22;;;;;;;19.50;85.50;101260.63;5009052;28;20180;-69
2023/08/17 05:08:28;;;;;;;8.02;2.55;;;;;;;19.55;84.95;101265.56;5015932;28;20068;-68
2023/08/17 05:10:55;;;;;;;3.97;2.35;;;;;;;19.60;84.72;101285.56;5007581;28;20052;-70
2023/08/17 05:13:23;;;;;;;5.78;2.30;;;;;;;19.69;84.29;101275.91;5016598;28;20524;-68
2023/08/17 05:15:50;;;;;;;9.70;2.30;;;;;;;19.75;83.77;101277.19;5012735;28;20569;-68
2023/08/17 05:18:17;;;;;;;5.28;2.65;;;;;;;19.80;83.21;101281.16;5017551;28;20145;-69
2023/08/17 05:20:45;;;;;;;5.25;2.50;;;;;;;19.84;82.66;101271.88;5016095;28;20149;-69
2023/08/17 05:23:39;;;;;;;6.45;2.53;;;;;;;19.88;82.41;101277.81;5011260;28;20095;-69
2023/08/17 05:26:06;;;;;;;7.38;2.33;;;;;;;19.94;82.18;101269.25;5020587;28;20140;-72
2023/08/17 05:28:33;;;;;;;5.03;2.15;;;;;;;20.01;81.61;101275.75;5036141;28;20434;-69
2023/08/17 05:31:08;;;;;;;7.10;2.60;;;;;;;20.11;81.18;101273.09;5011346;28;20587;-68
2023/08/17 05:33:36;;;;;;;7.63;2.17;;;;;;;20.15;81.19;101262.00;5033539;28;20406;-70
2023/08/17 05:36:04;;;;;;;7.38;2.30;;;;;;;20.22;80.84;101265.00;4997939;28;20103;-69
2023/08/17 05:38:31;;;;;;;4.90;2.10;;;;;;;20.31;80.22;101271.31;5011197;28;20145;-67
2023/08/17 05:40:59;;;;;;;5.65;2.45;;;;;;;20.36;79.90;101261.91;5032881;28;20043;-68
2023/08/17 05:43:26;;;;;;;3.40;1.73;;;;;;;20.38;79.52;101267.97;5026113;28;20053;-73
2023/08/17 05:45:54;;;;;;;5.68;2.00;;;;;;;20.42;79.40;101265.84;5009502;28;20137;-74
2023/08/17 05:48:21;;;;;;;11.85;2.85;;;;;;;20.48;79.36;101262.66;5014201;28;20496;-72
2023/08/17 05:50:49;;;;;;;10.32;2.50;;;;;;;20.51;79.38;101265.06;5027538;28;20584;-72
2023/08/17 05:53:16;;;;;;;6.18;2.33;;;;;;;20.54;78.88;101269.31;5028738;28;20132;-71
2023/08/17 05:55:43;;;;;;;13.40;3.25;;;;;;;20.59;79.12;101275.91;5038422;28;20059;-71
2023/08/17 05:58:11;;;;;;;10.50;3.50;;;;;;;20.61;79.00;101270.41;5024776;28;20057;-70
2023/08/17 06:00:38;;;;;;;6.20;1.88;;;;;;;20.64;78.75;101291.53;5025237;28;20080;-70
2023/08/17 06:03:06;;;;;;;9.07;1.85;;;;;;;20.69;78.31;101303.50;5015914;28;20116;-70
2023/08/17 06:05:34;;;;;;;3.70;2.00;;;;;;;20.74;78.34;101320.00;5031680;28;20132;-71
2023/08/17 06:08:02;;;;;;;5.15;2.15;;;;;;;20.75;78.06;101328.84;4997994;28;20069;-70
2023/08/17 06:10:29;;;;;;;3.13;1.70;;;;;;;20.71;77.78;101348.84;4999570;28;20064;-69
2023/08/17 06:12:57;;;;;;;5.53;2.58;;;;;;;20.62;77.57;101369.25;5018349;28;20049;-70
2023/08/17 06:15:25;;;;;;;7.20;2.80;;;;;;;20.46;78.04;101374.25;4997864;28;20095;-70
2023/08/17 06:17:52;;;;;;;6.78;2.10;;;;;;;20.37;78.86;101377.75;4993796;28;20091;-73
2023/08/17 06:20:20;;;;;;;4.60;1.98;;;;;;;20.36;78.92;101368.03;5000859;28;20465;-73
2023/08/17 06:22:49;;;;;;;7.10;2.00;;;;;;;20.38;78.87;101350.84;4998210;28;20277;-72
2023/08/17 06:25:16;;;;;;;4.18;2.10;;;;;;;20.44;78.23;101355.69;5017065;28;20053;-73
2023/08/17 06:27:44;;;;;;;5.75;1.90;;;;;;;20.48;78.10;101349.09;5018140;28;20057;-71
2023/08/17 06:30:12;;;;;;;7.82;2.40;;;;;;;20.52;78.04;101363.03;5029774;28;20137;-71
2023/08/17 06:32:39;;;;;;;5.63;1.90;;;;;;;20.52;77.76;101355.00;5020295;28;20073;-73
2023/08/17 06:35:07;;;;;;;6.20;2.40;;;;;;;20.52;78.08;101348.81;5041541;28;20110;-73
2023/08/17 06:37:35;;;;;;;8.07;2.25;;;;;;;20.51;78.39;101350.66;5027715;28;20049;-72
2023/08/17 06:40:07;;;;;;;5.03;2.13;;;;;;;20.48;78.56;101348.25;5027675;28;20156;-73
2023/08/17 06:42:35;;;;;;;5.80;2.20;;;;;;;20.44;78.44;101339.63;5018137;28;20045;-73
2023/08/17 06:45:03;;;;;;;3.75;1.90;;;;;;;20.52;78.50;101338.97;5019273;28;20159;-72
2023/08/17 06:47:31;;;;;;;5.20;2.10;;;;;;;20.64;78.09;101323.66;5015028;28;20050;-73
2023/08/17 06:49:58;;;;;;;3.35;1.90;;;;;;;20.80;77.93;101323.09;5031360;28;20048;-72
2023/08/17 06:52:26;;;;;;;4.82;2.47;;;;;;;20.94;77.77;101320.03;4998634;28;20046;-72
2023/08/17 06:54:53;;;;;;;3.70;1.83;;;;;;;21.04;77.00;101322.69;5016252;28;20061;-73
2023/08/17 06:57:21;;;;;;;4.40;2.17;;;;;;;21.12;76.36;101322.81;5035659;28;20049;-72
2023/08/17 06:59:48;;;;;;;10.00;2.40;;;;;;;21.17;76.46;101328.59;5019512;28;20180;-73
2023/08/17 07:02:16;;;;;;;5.65;2.70;;;;;;;21.22;76.38;101329.88;4994872;28;20575;-73
2023/08/17 07:04:43;;;;;;;8.70;2.47;;;;;;;21.30;76.14;101333.63;5028622;28;20033;-73
2023/08/17 07:07:11;;;;;;;6.82;1.92;;;;;;;21.45;75.78;101318.88;5013525;28;20109;-72
2023/08/17 07:09:38;;;;;;;6.18;2.25;;;;;;;21.64;75.23;101317.97;5001202;28;20100;-72
2023/08/17 07:12:06;;;;;;;7.72;2.35;;;;;;;21.83;74.61;101328.63;4996107;28;20072;-72
2023/08/17 07:14:33;;;;;;;6.07;3.20;;;;;;;21.97;74.25;101327.28;4997401;28;20056;-72
2023/08/17 07:17:00;;;;;;;5.72;2.53;;;;;;;22.04;73.32;101325.72;4996878;28;20441;-72
2023/08/17 07:19:28;;;;;;;8.60;2.00;;;;;;;22.10;73.17;101325.13;4999780;28;20095;-72
2023/08/17 07:22:16;;;;;;;6.40;2.20;;;;;;;22.00;72.59;101325.16;5013454;28;20060;-72
2023/08/17 07:24:44;;;;;;;5.93;2.30;;;;;;;21.98;72.61;101331.69;5020262;28;20064;-71
2023/08/17 07:27:11;;;;;;;4.07;2.40;;;;;;;21.96;72.67;101334.50;5034260;28;20110;-71
2023/08/17 07:29:39;;;;;;;5.00;2.58;;;;;;;21.97;72.87;101329.97;5020945;28;20331;-72
2023/08/17 07:32:07;;;;;;;7.05;2.55;;;;;;;22.02;73.04;101333.09;5011729;28;20057;-71
2023/08/17 07:34:36;;;;;;;6.82;2.63;;;;;;;22.13;72.37;101338.28;5018600;28;20060;-71
2023/08/17 07:37:04;;;;;;;5.57;2.20;;;;;;;22.16;72.25;101338.00;5033326;28;20141;-72
2023/08/17 07:39:32;;;;;;;5.68;1.90;;;;;;;22.13;72.97;101332.06;5015472;28;20061;-72
2023/08/17 07:42:00;;;;;;;5.88;2.45;;;;;;;22.18;72.65;101325.25;5003621;28;20122;-72
2023/08/17 07:44:28;;;;;;;6.03;2.50;;;;;;;22.24;72.34;101330.06;5035125;28;20136;-72
2023/08/17 07:46:55;;;;;;;7.05;2.53;;;;;;;22.26;72.25;101327.22;5010207;28;20164;-72
2023/08/17 07:49:24;;;;;;;6.40;2.05;;;;;;;22.30;72.25;101319.72;5034502;28;20128;-72
2023/08/17 07:51:59;;;;;;;4.75;2.40;;;;;;;22.41;71.81;101331.06;5028915;28;20067;-72
2023/08/17 07:54:27;;;;;;;13.40;3.28;;;;;;;22.52;71.34;101335.41;5013599;28;21005;-72
2023/08/17 07:56:54;;;;;;;6.68;2.70;;;;;;;22.63;71.07;101329.81;5032021;28;20132;-71
2023/08/17 07:59:22;;;;;;;5.97;2.55;;;;;;;22.85;70.81;101319.63;5011817;28;20137;-71
2023/08/17 08:01:49;;;;;;;3.35;2.15;;;;;;;23.04;69.30;101310.59;5011548;28;20076;-71
2023/08/17 08:04:16;;;;;;;7.22;2.60;;;;;;;23.22;69.36;101311.41;4999005;28;20052;-71
2023/08/17 08:06:44;;;;;;;6.65;3.13;;;;;;;23.43;68.61;101316.44;5033781;28;20053;-72
2023/08/17 08:09:11;;;;;;;7.47;2.85;;;;;;;23.52;67.76;101320.88;4999052;28;20056;-72
2023/08/17 08:11:39;;;;;;;4.00;2.13;;;;;;;23.61;67.75;101314.56;5010443;28;20141;-72
2023/08/17 08:14:06;;;;;;;6.57;3.05;;;;;;;23.77;67.46;101310.28;5017155;28;20067;-72
2023/08/17 08:16:34;;;;;;;2.97;1.95;;;;;;;23.94;66.96;101301.31;5017123;28;20641;-71
2023/08/17 08:19:02;;;;;;;6.47;2.72;;;;;;;24.34;66.11;101295.25;5010503;28;20468;-70
2023/08/17 08:21:29;;;;;;;6.43;2.65;;;;;;;24.73;65.66;101297.38;5030879;28;20055;-72
2023/08/17 08:23:56;;;;;;;6.28;2.53;;;;;;;24.96;64.24;101293.00;5025644;28;20049;-72
2023/08/17 08:26:24;;;;;;;6.32;2.42;;;;;;;25.30;62.88;101296.56;4993392;28;20192;-72
2023/08/17 08:28:51;;;;;;;5.53;2.85;;;;;;;25.40;62.63;101290.00;5016853;28;20132;-72
2023/08/17 08:31:18;;;;;;;4.28;2.03;;;;;;;25.54;61.66;101290.31;5016823;28;20477;-72
2023/08/17 08:33:46;;;;;;;6.95;2.72;;;;;;;25.55;61.46;101289.28;5019291;28;20041;-72
2023/08/17 08:36:13;;;;;;;3.90;2.63;;;;;;;25.51;61.95;101286.91;5016301;28;20496;-70
2023/08/17 08:38:41;;;;;;;4.53;2.10;;;;;;;25.38;62.17;101286.59;5015778;28;20425;-71
2023/08/17 08:41:09;;;;;;;6.57;2.83;;;;;;;25.39;61.97;101282.06;5026872;28;20112;-71
2023/08/17 08:43:37;;;;;;;8.90;3.13;;;;;;;25.24;61.87;101266.59;5036216;28;20057;-72
2023/08/17 08:46:05;;;;;;;6.25;2.25;;;;;;;25.19;62.77;101265.41;5034735;28;20057;-72
2023/08/17 08:48:32;;;;;;;3.88;2.15;;;;;;;25.08;62.94;101274.72;5015938;28;20124;-71
2023/08/17 08:51:00;;;;;;;4.63;2.42;;;;;;;24.91;63.20;101262.22;5014384;28;20052;-71
2023/08/17 08:53:32;;;;;;;3.70;2.13;;;;;;;24.59;64.54;101261.19;5015659;28;20143;-71
2023/08/17 08:56:03;;;;;;;4.72;2.85;;;;;;;24.40;65.67;101259.63;4994778;28;20562;-71
2023/08/17 08:58:31;;;;;;;4.55;2.38;;;;;;;24.24;66.52;101270.31;5015781;28;20049;-72
2023/08/17 09:01:00;;;;;;;3.72;2.65;;;;;;;24.03;67.42;101261.84;5027760;28;20056;-71
2023/08/17 09:03:28;;;;;;;6.25;2.60;;;;;;;23.95;68.12;101258.09;5026726;28;20137;-71
2023/08/17 09:05:57;;;;;;;3.47;2.13;;;;;;;23.91;68.31;101253.22;5026857;28;20677;-71
2023/08/17 09:08:28;;;;;;;4.85;2.38;;;;;;;23.94;68.26;101251.03;4996948;28;21183;-72
2023/08/17 09:10:56;;;;;;;3.67;2.63;;;;;;;24.02;68.26;101247.56;5013175;28;20141;-72
2023/08/17 09:13:23;;;;;;;4.97;3.42;;;;;;;24.17;68.32;101245.06;5009728;28;20232;-72
2023/08/17 09:15:50;;;;;;;5.97;2.63;;;;;;;24.17;68.43;101237.84;5007558;28;20486;-71
2023/08/17 09:18:18;;;;;;;5.32;2.65;;;;;;;24.14;68.53;101238.19;5022981;28;20599;-72
2023/08/17 09:20:47;;;;;;;4.28;2.60;;;;;;;24.26;68.73;101230.63;5012060;28;20061;-71
2023/08/17 09:23:19;;;;;;;5.28;2.55;;;;;;;24.43;67.84;101234.22;5010211;28;20133;-72
2023/08/17 09:25:49;;;;;;;2.92;2.28;;;;;;;24.52;67.38;101246.69;4979795;28;20476;-72
2023/08/17 09:28:18;;;;;;;4.90;2.17;;;;;;;24.67;67.08;101242.31;5012842;28;20049;-72
2023/08/17 09:30:58;;;;;;;4.20;2.35;;;;;;;24.82;67.02;101250.59;5012580;28;20037;-73
2023/08/17 09:33:28;;;;;;;5.38;2.55;;;;;;;25.02;66.60;101253.78;4992834;28;20045;-73
2023/08/17 09:35:57;;;;;;;4.50;2.60;;;;;;;25.18;66.19;101252.97;5031705;28;20068;-71
2023/08/17 09:38:27;;;;;;;5.80;2.50;;;;;;;25.48;65.58;101251.38;5014118;28;20057;-72
2023/08/17 09:40:57;;;;;;;6.68;2.95;;;;;;;25.61;64.31;101253.53;5012049;28;20045;-71
2023/08/17 09:43:28;;;;;;;5.53;3.10;;;;;;;25.82;63.95;101255.69;5008485;28;20046;-72
2023/08/17 09:45:56;;;;;;;6.03;2.70;;;;;;;25.95;64.03;101250.56;5025016;28;20118;-72
2023/08/17 09:48:26;;;;;;;5.30;3.08;;;;;;;26.06;63.34;101249.34;5013537;28;20574;-72
2023/08/17 09:51:01;;;;;;;6.20;2.67;;;;;;;26.04;63.08;101245.97;5023064;28;20644;-72
2023/08/17 09:53:29;;;;;;;7.88;3.03;;;;;;;26.18;62.59;101245.22;5035599;28;20496;-72
2023/08/17 09:55:57;;;;;;;4.07;2.40;;;;;;;26.17;62.14;101248.94;5028771;28;20065;-70
2023/08/17 09:58:25;;;;;;;9.50;2.70;;;;;;;26.21;61.62;101244.88;5023374;28;20072;-71
2023/08/17 10:00:58;;;;;;;4.00;2.75;;;;;;;26.26;62.27;101248.72;5013867;28;20103;-72
2023/08/17 10:03:27;;;;;;;5.32;1.90;;;;;;;26.50;61.67;101245.03;5010990;28;20049;-70
2023/08/17 10:06:09;;;;;;;7.75;2.45;;;;;;;26.62;61.72;101239.25;4993995;28;20137;-72
2023/08/17 10:08:41;;;;;;;6.47;2.40;;;;;;;26.51;62.26;101238.63;4989545;28;20049;-71
2023/08/17 10:11:09;;;;;;;5.53;2.53;;;;;;;26.38;62.57;101237.50;4994951;28;20052;-71
2023/08/17 10:13:42;;;;;;;3.65;2.38;;;;;;;26.17;62.70;101230.91;5010062;28;20057;-71
2023/08/17 10:16:23;;;;;;;5.93;3.17;;;;;;;26.01;62.73;101223.72;4994436;28;20049;-71
2023/08/17 10:18:57;;;;;;;4.43;2.50;;;;;;;25.84;63.69;101226.66;5009138;28;20049;-73
2023/08/17 10:21:29;;;;;;;3.45;2.20;;;;;;;25.72;64.30;101228.91;5012110;28;20062;-73
2023/08/17 10:23:57;;;;;;;4.70;2.22;;;;;;;25.71;63.77;101225.38;5014195;28;20037;-71
2023/08/17 10:26:25;;;;;;;4.70;2.85;;;;;;;25.81;63.72;101227.88;5010892;28;20053;-71
2023/08/17 10:28:57;;;;;;;3.65;2.30;;;;;;;25.91;64.02;101233.06;5010740;28;20132;-72
2023/08/17 10:31:29;;;;;;;4.60;2.90;;;;;;;26.10;63.41;101229.91;5028547;28;20148;-71
2023/08/17 10:33:57;;;;;;;3.28;2.50;;;;;;;26.23;63.41;101234.75;4992812;28;20049;-70
2023/08/17 10:36:25;;;;;;;8.00;2.50;;;;;;;26.24;63.19;101236.41;4995429;28;20049;-70
2023/08/17 10:39:18;;;;;;;4.13;2.83;;;;;;;26.38;63.08;101248.31;5011059;28;20065;-71
2023/08/17 10:41:47;;;;;;;4.78;2.63;;;;;;;26.46;62.65;101232.09;5013178;28;20147;-70
2023/08/17 10:44:17;;;;;;;4.57;2.58;;;;;;;26.62;62.81;101231.97;5010190;28;20057;-71
2023/08/17 10:46:46;;;;;;;7.03;2.92;;;;;;;26.70;62.98;101226.50;5011195;28;20140;-71
2023/08/17 10:49:26;;;;;;;9.00;2.60;;;;;;;26.77;62.07;101226.63;4991215;28;20139;-70
2023/08/17 10:52:02;;;;;;;5.82;3.28;;;;;;;26.93;61.51;101221.06;4993304;28;20192;-71
2023/08/17 10:54:40;;;;;;;7.32;2.85;;;;;;;27.07;61.24;101218.59;5013576;28;20057;-71
2023/08/17 10:57:36;;;;;;;4.80;2.28;;;;;;;27.10;60.94;101232.59;5011089;28;20053;-71
2023/08/17 11:00:26;;;;;;;6.13;2.72;;;;;;;27.22;60.76;101225.72;5008861;28;20049;-71
2023/08/17 11:02:56;;;;;;;5.25;2.90;;;;;;;27.32;60.60;101220.03;5012070;28;20592;-71
2023/08/17 11:05:49;;;;;;;4.05;2.60;;;;;;;27.54;60.35;101226.38;4992003;28;20468;-71
2023/08/17 11:08:29;;;;;;;3.78;2.65;;;;;;;27.64;59.60;101218.81;5005784;28;20057;-71
2023/08/17 11:11:00;;;;;;;5.90;2.88;;;;;;;27.83;59.59;101213.88;5005755;28;20069;-71
2023/08/17 11:13:30;;;;;;;7.60;2.95;;;;;;;28.10;59.32;101209.59;5027960;28;20674;-71
2023/08/17 11:15:59;;;;;;;6.40;3.05;;;;;;;28.31;58.41;101222.34;5008515;28;20610;-71
2023/08/17 11:18:31;;;;;;;4.18;2.88;;;;;;;28.73;58.04;101214.25;5008083;28;20643;-72
2023/08/17 11:21:00;;;;;;;5.70;2.90;;;;;;;29.21;56.92;101214.41;5025301;28;20064;-71
2023/08/17 11:23:32;;;;;;;4.75;2.85;;;;;;;29.71;55.69;101222.44;5013512;28;20089;-71
2023/08/17 11:25:59;;;;;;;4.03;2.85;;;;;;;30.07;54.67;101227.59;5007086;28;20202;-70
2023/08/17 11:28:33;;;;;;;6.18;2.75;;;;;;;30.35;52.77;101221.22;5007336;28;20045;-70
2023/08/17 11:31:02;;;;;;;4.22;2.90;;;;;;;30.35;53.11;101222.09;5025300;28;20076;-71
2023/08/17 11:33:31;;;;;;;4.63;2.75;;;;;;;30.38;51.83;101226.25;5009449;28;20064;-70
2023/08/17 11:36:00;;;;;;;4.47;3.13;;;;;;;30.14;51.76;101219.53;5008571;28;20060;-71
2023/08/17 11:38:40;;;;;;;3.90;2.88;;;;;;;30.08;51.64;101226.59;4997755;28;20049;-70
2023/08/17 11:41:08;;;;;;;3.55;2.70;;;;;;;30.01;52.01;101214.84;4990636;28;20050;-71